Terminal Aerodrome Forecast
Issued by NWS Binghamton, NY

Home | Current Version | Previous Version | Text Only | Print | Product List | Glossary On
Versions: 1 2 3 4 5 6 7 8 9 10 11 12 13 14 15 16 17 18 19 20 21
000
FTUS41 KBGM 210800 AAA
TAFSYR
TAF AMD
KSYR 210813Z 2108/2206 VRB04KT P6SM -SHRA SCT030 OVC050
      TEMPO 2108/2112 -SHRA OVC030
     FM211200 12005KT 6SM -SHRA OVC035
      TEMPO 2112/2116 4SM -SHRA OVC025
     FM212100 04004KT 5SM -SHRA OVC025=

USA.gov is the U.S. government's official web portal to all federal, state and local government web resources and services.